Time;durP1;ratioP1;P1;durP2;ratioP2;P2;SDS_P1;SDS_P2;PMS_P1;PMS_P2;Temp;Humidity;BMP_temperature;BMP_pressure;BME280_temperature;BME280_humidity;BME280_pressure;Samples;Min_cycle;Max_cycle;Signal;HPM_P1;HPM_P2
2024/01/08 00:01:35;;;;;;;11.07;9.73;;;;;;;9.88;77.76;93358.56;5076364;28;20203;-78
2024/01/08 00:04:00;;;;;;;11.23;8.90;;;;;;;9.83;77.93;93368.00;5074813;28;20251;-77
2024/01/08 00:06:25;;;;;;;10.30;8.23;;;;;;;9.85;78.01;93368.63;5072976;28;20240;-77
2024/01/08 00:08:51;;;;;;;10.17;8.90;;;;;;;9.76;78.09;93369.78;5074554;28;20220;-78
2024/01/08 00:11:16;;;;;;;10.17;8.50;;;;;;;9.81;78.01;93372.63;5072277;28;20191;-76
2024/01/08 00:13:42;;;;;;;9.70;8.37;;;;;;;9.79;77.55;93378.09;5071812;28;20282;-77
2024/01/08 00:16:07;;;;;;;12.10;8.23;;;;;;;9.70;78.31;93373.94;5079941;28;20268;-79
2024/01/08 00:18:33;;;;;;;8.60;7.30;;;;;;;9.81;77.98;93377.88;5077288;28;20216;-80
2024/01/08 00:20:59;;;;;;;9.70;7.77;;;;;;;9.77;77.87;93374.00;5071790;28;20223;-79
2024/01/08 00:23:25;;;;;;;10.00;7.77;;;;;;;9.58;78.13;93376.25;5076851;28;20213;-78
2024/01/08 00:25:50;;;;;;;8.27;7.43;;;;;;;9.65;78.30;93377.13;5075583;28;20274;-79
2024/01/08 00:28:16;;;;;;;9.63;7.13;;;;;;;9.68;78.42;93376.75;5071632;28;20214;-79
2024/01/08 00:30:41;;;;;;;8.90;6.93;;;;;;;9.71;78.10;93381.63;5076633;28;20213;-78
2024/01/08 00:33:07;;;;;;;6.90;6.17;;;;;;;9.75;77.30;93378.63;5076967;28;20224;-79
2024/01/08 00:35:32;;;;;;;7.03;6.33;;;;;;;9.72;77.85;93387.69;5077244;28;20299;-79
2024/01/08 00:37:58;;;;;;;7.77;6.87;;;;;;;9.56;78.28;93380.88;5069380;28;20239;-78
2024/01/08 00:40:23;;;;;;;7.47;6.67;;;;;;;9.70;78.23;93387.91;5073950;28;20239;-78
2024/01/08 00:42:49;;;;;;;6.37;5.77;;;;;;;9.66;78.14;93388.44;5080968;28;20208;-79
2024/01/08 00:45:14;;;;;;;6.73;6.07;;;;;;;9.81;77.62;93391.84;5074003;28;20217;-79
2024/01/08 00:47:40;;;;;;;6.60;5.80;;;;;;;9.79;77.85;93391.22;5074293;28;20239;-78
2024/01/08 00:50:06;;;;;;;7.53;5.83;;;;;;;9.69;77.84;93390.69;5071076;28;20236;-78
2024/01/08 00:52:32;;;;;;;5.67;4.50;;;;;;;9.65;78.09;93395.50;5073063;28;20252;-80
2024/01/08 00:55:03;;;;;;;5.03;4.53;;;;;;;9.70;77.55;93401.00;5076992;28;20227;-78
2024/01/08 00:57:29;;;;;;;6.97;4.37;;;;;;;9.68;77.94;93400.38;5075792;28;20601;-78
2024/01/08 00:59:55;;;;;;;5.83;3.60;;;;;;;9.63;77.77;93400.13;5074954;28;20220;-78
2024/01/08 01:02:20;;;;;;;4.60;4.00;;;;;;;9.71;77.82;93407.88;5072625;28;20233;-77
2024/01/08 01:04:45;;;;;;;3.83;3.20;;;;;;;9.66;77.93;93412.88;5073548;28;20188;-78
2024/01/08 01:07:11;;;;;;;4.77;2.97;;;;;;;9.73;77.40;93407.72;5074611;28;20296;-78
2024/01/08 01:09:36;;;;;;;3.33;2.70;;;;;;;9.69;77.62;93403.81;5075363;28;20256;-77
2024/01/08 01:12:02;;;;;;;3.60;2.97;;;;;;;9.75;77.44;93415.38;5074264;28;20610;-77
2024/01/08 01:14:27;;;;;;;3.13;2.70;;;;;;;9.71;77.80;93413.13;5074862;28;20254;-77
2024/01/08 01:16:52;;;;;;;3.03;2.73;;;;;;;9.63;77.49;93415.88;5073889;28;20681;-79
2024/01/08 01:19:18;;;;;;;5.03;2.97;;;;;;;9.61;77.89;93415.22;5073560;28;20232;-79
2024/01/08 01:21:43;;;;;;;3.67;3.00;;;;;;;9.64;77.82;93411.44;5074049;28;20216;-78
2024/01/08 01:24:09;;;;;;;3.63;2.90;;;;;;;9.59;77.49;93413.78;5072422;28;20235;-78
2024/01/08 01:26:34;;;;;;;3.80;2.70;;;;;;;9.57;77.81;93419.25;5075430;28;20217;-78
2024/01/08 01:28:59;;;;;;;4.33;2.90;;;;;;;9.65;77.68;93428.78;5072853;28;20188;-78
2024/01/08 01:31:25;;;;;;;3.07;2.77;;;;;;;9.52;78.12;93421.59;5080063;28;20286;-79
2024/01/08 01:33:50;;;;;;;3.40;3.10;;;;;;;9.60;78.21;93431.19;5073013;28;20668;-78
2024/01/08 01:36:16;;;;;;;4.00;3.60;;;;;;;9.51;77.93;93425.22;5072509;28;20231;-77
2024/01/08 01:38:41;;;;;;;5.00;3.80;;;;;;;9.42;77.80;93423.69;5076240;28;20229;-79
2024/01/08 01:41:07;;;;;;;4.50;3.60;;;;;;;9.45;77.48;93423.31;5077048;28;20299;-77
2024/01/08 01:43:32;;;;;;;4.47;3.90;;;;;;;9.37;77.91;93426.06;5072962;28;20181;-77
2024/01/08 01:46:06;;;;;;;4.73;4.10;;;;;;;9.37;77.82;93428.69;5077143;28;20220;-77
2024/01/08 01:48:32;;;;;;;5.43;4.80;;;;;;;9.19;77.92;93427.22;5071607;28;20217;-77
2024/01/08 01:50:59;;;;;;;5.97;5.37;;;;;;;9.30;77.89;93430.41;5075264;28;20237;-78
2024/01/08 01:53:25;;;;;;;5.57;5.00;;;;;;;9.28;77.81;93418.28;5079434;28;20220;-78
2024/01/08 01:55:52;;;;;;;6.27;5.70;;;;;;;9.20;77.84;93434.13;5076807;28;20185;-78
2024/01/08 01:58:18;;;;;;;6.70;6.10;;;;;;;8.95;78.46;93419.66;5073695;28;20220;-78
2024/01/08 02:00:44;;;;;;;6.30;5.70;;;;;;;9.17;78.20;93431.88;5070688;28;20228;-78
2024/01/08 02:03:10;;;;;;;6.60;5.87;;;;;;;9.14;77.54;93429.63;5072954;28;20232;-78
2024/01/08 02:05:35;;;;;;;6.93;6.23;;;;;;;9.08;77.91;93432.13;5073254;28;20311;-78
2024/01/08 02:08:02;;;;;;;7.20;5.97;;;;;;;9.15;77.74;93449.59;5072950;28;20259;-77
2024/01/08 02:10:29;;;;;;;11.30;7.47;;;;;;;8.94;77.87;93431.97;5069249;28;20200;-77
2024/01/08 02:12:55;;;;;;;7.10;6.40;;;;;;;9.01;78.35;93432.88;5063892;28;20232;-77
2024/01/08 02:15:20;;;;;;;7.20;6.43;;;;;;;9.11;77.83;93447.50;5067503;28;20300;-78
2024/01/08 02:17:45;;;;;;;7.47;6.30;;;;;;;9.05;77.28;93439.38;5076458;28;20300;-77
2024/01/08 02:20:11;;;;;;;7.17;6.47;;;;;;;9.02;77.45;93446.78;5079397;28;20181;-77
2024/01/08 02:22:43;;;;;;;7.43;5.37;;;;;;;8.89;77.77;93447.41;5066063;28;20292;-76
2024/01/08 02:25:10;;;;;;;7.30;6.23;;;;;;;8.88;77.72;93450.22;5065785;28;20223;-77
2024/01/08 02:27:35;;;;;;;6.37;5.77;;;;;;;8.77;77.81;93449.66;5072907;28;20232;-77
2024/01/08 02:30:01;;;;;;;6.33;5.73;;;;;;;8.65;78.68;93452.91;5073557;28;20239;-78
2024/01/08 02:32:26;;;;;;;6.37;5.77;;;;;;;8.83;78.10;93458.63;5076501;28;20246;-77
2024/01/08 02:34:51;;;;;;;6.73;6.13;;;;;;;8.73;77.86;93456.25;5073069;28;20204;-78
2024/01/08 02:37:17;;;;;;;6.97;5.80;;;;;;;8.72;78.03;93454.63;5075097;28;20217;-78
2024/01/08 02:39:42;;;;;;;5.47;4.97;;;;;;;8.61;78.40;93457.69;5072482;28;20734;-78
2024/01/08 02:42:08;;;;;;;6.20;5.60;;;;;;;8.78;78.00;93467.00;5081624;28;20220;-79
2024/01/08 02:44:33;;;;;;;5.93;5.33;;;;;;;8.81;77.76;93457.97;5078800;28;20228;-78
2024/01/08 02:46:59;;;;;;;6.57;5.13;;;;;;;8.78;77.66;93471.44;5075936;28;20180;-79
2024/01/08 02:49:26;;;;;;;5.13;4.63;;;;;;;8.78;77.35;93464.38;5057734;28;20232;-79
2024/01/08 02:51:52;;;;;;;6.23;5.63;;;;;;;8.64;78.23;93467.81;5075899;28;20308;-79
2024/01/08 02:54:17;;;;;;;5.23;4.73;;;;;;;8.66;78.25;93470.22;5076420;28;20300;-78
2024/01/08 02:56:42;;;;;;;6.00;5.40;;;;;;;8.76;78.32;93469.00;5074110;28;20236;-77
2024/01/08 02:59:08;;;;;;;5.67;5.17;;;;;;;8.81;78.00;93468.47;5076578;28;20234;-78
2024/01/08 03:01:33;;;;;;;5.10;4.60;;;;;;;8.76;78.12;93482.09;5075785;28;20203;-79
2024/01/08 03:03:59;;;;;;;4.37;3.90;;;;;;;8.51;78.87;93481.50;5102718;28;20212;-75
2024/01/08 03:06:24;;;;;;;4.90;4.23;;;;;;;8.61;79.32;93489.13;5076682;28;20212;-77
2024/01/08 03:08:50;;;;;;;3.80;3.40;;;;;;;8.69;79.00;93488.25;5074335;28;20220;-78
2024/01/08 03:11:15;;;;;;;4.00;3.70;;;;;;;8.77;78.29;93488.16;5078029;28;20260;-77
2024/01/08 03:13:40;;;;;;;4.90;4.40;;;;;;;8.75;78.24;93492.78;5078676;28;20184;-79
2024/01/08 03:16:06;;;;;;;4.73;3.57;;;;;;;8.69;78.48;93490.88;5075463;28;20231;-78
2024/01/08 03:18:31;;;;;;;3.90;3.60;;;;;;;8.61;78.55;93504.84;5079187;28;20244;-78
2024/01/08 03:20:57;;;;;;;4.13;3.73;;;;;;;8.65;78.61;93506.09;5073809;28;20644;-76
2024/01/08 03:23:22;;;;;;;3.60;3.30;;;;;;;8.55;78.38;93502.91;5076753;28;20219;-77
2024/01/08 03:25:48;;;;;;;4.03;3.63;;;;;;;8.64;78.22;93512.34;5083421;28;20177;-78
2024/01/08 03:28:13;;;;;;;4.20;3.53;;;;;;;8.57;78.35;93514.03;5075557;28;20278;-78
2024/01/08 03:30:38;;;;;;;3.83;3.43;;;;;;;8.43;77.90;93510.38;5078842;28;20244;-80
2024/01/08 03:33:04;;;;;;;3.93;3.53;;;;;;;8.41;78.07;93512.34;5079255;28;20358;-75
2024/01/08 03:35:30;;;;;;;3.87;3.47;;;;;;;8.44;78.36;93511.19;5072075;28;20235;-75
2024/01/08 03:37:55;;;;;;;4.30;3.90;;;;;;;8.46;77.96;93517.09;5081017;28;20204;-78
2024/01/08 03:40:21;;;;;;;3.83;3.33;;;;;;;8.44;77.90;93519.06;5076699;28;20208;-78
2024/01/08 03:42:46;;;;;;;4.43;4.03;;;;;;;8.33;78.50;93525.47;5076509;28;20236;-78
2024/01/08 03:45:12;;;;;;;4.67;4.27;;;;;;;8.26;78.69;93525.38;5074224;28;20269;-79
2024/01/08 03:47:39;;;;;;;3.97;3.57;;;;;;;8.29;78.79;93529.47;5073456;28;20285;-79
2024/01/08 03:50:06;;;;;;;4.03;3.50;;;;;;;8.36;78.33;93539.03;5078640;28;20185;-78
2024/01/08 03:52:31;;;;;;;3.80;3.50;;;;;;;8.34;77.77;93527.09;5042058;28;20301;-79
2024/01/08 03:54:57;;;;;;;3.83;3.47;;;;;;;8.47;78.15;93544.91;5077910;28;20299;-79
2024/01/08 03:57:23;;;;;;;4.70;4.27;;;;;;;8.53;77.67;93541.59;5076823;28;20225;-80
2024/01/08 03:59:48;;;;;;;5.23;4.73;;;;;;;8.40;77.91;93544.78;5080077;28;20212;-78
2024/01/08 04:02:14;;;;;;;4.67;4.27;;;;;;;8.36;78.08;93549.50;5070482;28;20196;-81
2024/01/08 04:04:42;;;;;;;4.77;4.30;;;;;;;8.22;78.40;93560.75;5079183;28;20178;-81
2024/01/08 04:07:11;;;;;;;5.23;4.73;;;;;;;8.33;78.14;93557.72;5074055;28;20222;-82
2024/01/08 04:09:37;;;;;;;5.27;4.77;;;;;;;8.24;78.50;93561.41;5076071;28;20224;-81
2024/01/08 04:12:05;;;;;;;4.93;4.53;;;;;;;8.25;78.73;93568.25;5074834;28;20220;-81
2024/01/08 04:14:31;;;;;;;5.60;5.10;;;;;;;8.28;78.82;93570.50;5060990;28;20241;-81
2024/01/08 04:16:57;;;;;;;5.43;4.93;;;;;;;8.37;78.60;93566.88;5075219;28;20239;-81
2024/01/08 04:19:23;;;;;;;4.40;4.00;;;;;;;8.30;78.30;93568.56;5072992;28;20221;-81
2024/01/08 04:21:48;;;;;;;5.30;4.73;;;;;;;8.24;79.00;93569.25;5073950;28;20241;-81
2024/01/08 04:24:14;;;;;;;5.77;5.20;;;;;;;8.15;79.06;93578.13;5074057;28;20224;-81
2024/01/08 04:26:39;;;;;;;5.90;5.30;;;;;;;8.23;79.41;93580.69;5071584;28;20220;-81
2024/01/08 04:29:05;;;;;;;5.87;5.30;;;;;;;8.26;78.76;93584.78;5070963;28;20205;-80
2024/01/08 04:31:31;;;;;;;5.93;5.33;;;;;;;8.31;79.24;93585.06;5073163;28;20184;-81
2024/01/08 04:33:56;;;;;;;5.87;5.33;;;;;;;8.35;78.56;93589.00;5077098;28;20212;-82
2024/01/08 04:36:22;;;;;;;6.57;5.90;;;;;;;8.33;79.04;93597.00;5074649;28;20351;-81
2024/01/08 04:38:47;;;;;;;7.13;6.43;;;;;;;8.27;78.65;93605.56;5075959;28;20231;-81
2024/01/08 04:41:20;;;;;;;6.57;5.87;;;;;;;8.42;78.60;93616.16;5072992;28;20274;-77
2024/01/08 04:43:47;;;;;;;5.60;5.10;;;;;;;8.45;76.88;93604.53;5072979;28;20184;-79
2024/01/08 04:46:12;;;;;;;5.50;5.00;;;;;;;8.31;76.45;93619.13;5075822;28;20233;-80
2024/01/08 04:48:38;;;;;;;6.07;5.30;;;;;;;8.21;76.90;93623.78;5073546;28;20301;-74
2024/01/08 04:51:03;;;;;;;4.80;4.40;;;;;;;8.34;76.14;93624.00;5018113;28;1176117;-77
2024/01/08 04:53:33;;;;;;;4.20;3.80;;;;;;;8.32;75.73;93623.38;5065971;28;20216;-79
2024/01/08 04:55:58;;;;;;;3.67;3.37;;;;;;;8.32;75.72;93626.81;5075810;28;20206;-73
2024/01/08 04:58:24;;;;;;;3.03;2.77;;;;;;;8.09;76.26;93642.47;5071757;28;20218;-74
2024/01/08 05:00:49;;;;;;;3.30;3.00;;;;;;;8.21;75.39;93639.50;5072810;28;20220;-74
2024/01/08 05:03:14;;;;;;;2.47;2.27;;;;;;;8.00;75.55;93640.06;5071539;28;20242;-76
2024/01/08 05:05:42;;;;;;;3.00;2.50;;;;;;;8.06;75.24;93653.28;5073910;28;20225;-75
2024/01/08 05:08:07;;;;;;;3.97;2.30;;;;;;;8.14;75.36;93649.81;5075544;28;20195;-75
2024/01/08 05:10:32;;;;;;;2.53;2.33;;;;;;;8.14;74.93;93658.47;5071542;28;20186;-76
2024/01/08 05:12:58;;;;;;;1.93;1.83;;;;;;;8.05;74.74;93661.31;5075213;28;20334;-76
2024/01/08 05:15:23;;;;;;;2.73;1.87;;;;;;;8.15;74.14;93662.75;5078924;28;20223;-75
2024/01/08 05:17:49;;;;;;;1.70;1.50;;;;;;;8.01;73.28;93673.09;5076832;28;20231;-75
2024/01/08 05:20:14;;;;;;;2.03;1.73;;;;;;;7.95;73.55;93685.88;5078237;28;20189;-71
2024/01/08 05:22:39;;;;;;;1.87;1.77;;;;;;;8.02;73.22;93682.56;5071523;28;20232;-73
2024/01/08 05:25:05;;;;;;;2.20;2.00;;;;;;;7.90;73.51;93685.56;5072423;28;20230;-72
2024/01/08 05:27:30;;;;;;;2.30;1.80;;;;;;;7.79;73.83;93696.38;5073498;28;20224;-72
2024/01/08 05:29:56;;;;;;;1.73;1.63;;;;;;;7.85;72.72;93695.72;5060652;28;20311;-71
2024/01/08 05:32:22;;;;;;;1.87;1.67;;;;;;;7.76;72.95;93696.72;5071964;28;20228;-74
2024/01/08 05:34:47;;;;;;;2.10;1.87;;;;;;;7.73;72.89;93710.97;5075812;28;20231;-72
2024/01/08 05:37:12;;;;;;;2.00;1.90;;;;;;;7.67;72.93;93709.00;5072763;28;20232;-72
2024/01/08 05:39:38;;;;;;;2.30;2.00;;;;;;;7.53;72.69;93703.63;5068665;28;20280;-72
2024/01/08 05:42:03;;;;;;;2.33;1.80;;;;;;;7.54;72.33;93713.09;5071975;28;20240;-70
2024/01/08 05:44:29;;;;;;;2.07;1.97;;;;;;;7.54;72.72;93721.78;5076117;28;20220;-71
2024/01/08 05:46:54;;;;;;;2.40;2.20;;;;;;;7.68;72.21;93730.75;5074449;28;20242;-71
2024/01/08 05:49:20;;;;;;;2.53;2.10;;;;;;;7.62;71.86;93736.66;5075196;28;20216;-68
2024/01/08 05:51:45;;;;;;;2.33;2.10;;;;;;;7.40;71.66;93733.69;5071443;28;20229;-73
2024/01/08 05:54:10;;;;;;;2.40;2.20;;;;;;;7.32;71.05;93746.78;5075130;28;20247;-71
2024/01/08 05:56:37;;;;;;;2.00;1.90;;;;;;;7.26;71.21;93739.59;5075178;28;20225;-72
2024/01/08 05:59:03;;;;;;;2.23;2.10;;;;;;;7.23;71.00;93745.97;5077020;28;20188;-72
2024/01/08 06:01:29;;;;;;;2.10;1.80;;;;;;;7.12;70.80;93746.28;5080260;28;20208;-73
2024/01/08 06:03:54;;;;;;;2.17;2.00;;;;;;;7.12;71.24;93754.13;5074243;28;20244;-72
2024/01/08 06:06:20;;;;;;;2.40;2.20;;;;;;;7.06;71.82;93750.38;5069373;28;20217;-73
2024/01/08 06:08:46;;;;;;;2.40;2.20;;;;;;;7.07;70.72;93767.66;5072385;28;20221;-74
2024/01/08 06:11:11;;;;;;;2.23;2.03;;;;;;;7.04;71.08;93768.00;5069759;28;20200;-73
2024/01/08 06:13:37;;;;;;;3.20;2.40;;;;;;;7.05;70.97;93763.59;5070556;28;20242;-74
2024/01/08 06:16:03;;;;;;;2.07;1.90;;;;;;;6.88;71.46;93767.97;5074868;28;20216;-72
2024/01/08 06:18:29;;;;;;;2.40;2.20;;;;;;;6.78;71.95;93767.28;5072804;28;20232;-71
2024/01/08 06:20:55;;;;;;;2.37;2.17;;;;;;;7.04;71.09;93783.69;5069925;28;20240;-74
2024/01/08 06:23:21;;;;;;;2.20;2.10;;;;;;;6.76;71.35;93782.28;5059035;28;20225;-71
2024/01/08 06:25:46;;;;;;;2.20;2.10;;;;;;;6.66;71.51;93794.69;5068142;28;20262;-75
2024/01/08 06:28:12;;;;;;;2.20;2.00;;;;;;;6.65;71.25;93799.06;5073620;28;20270;-74
2024/01/08 06:30:38;;;;;;;2.50;2.30;;;;;;;6.52;71.32;93796.09;5075937;28;20243;-74
2024/01/08 06:33:05;;;;;;;2.40;2.20;;;;;;;6.68;70.79;93796.13;5071534;28;20224;-76
2024/01/08 06:35:30;;;;;;;2.57;2.37;;;;;;;6.45;70.89;93797.72;5072660;28;20312;-77
2024/01/08 06:37:56;;;;;;;2.60;2.40;;;;;;;6.46;70.87;93807.16;5066279;28;20235;-76
2024/01/08 06:40:21;;;;;;;2.93;2.37;;;;;;;6.32;71.45;93816.41;5064868;28;20232;-77
2024/01/08 06:42:47;;;;;;;2.47;2.27;;;;;;;6.22;71.51;93824.34;5070820;28;20232;-78
2024/01/08 06:45:12;;;;;;;2.37;2.17;;;;;;;6.19;72.04;93822.84;5070471;28;20224;-77
2024/01/08 06:47:38;;;;;;;2.90;2.50;;;;;;;6.24;71.96;93832.03;5074623;28;20244;-78
2024/01/08 06:50:04;;;;;;;2.93;2.07;;;;;;;6.10;71.89;93844.66;5079641;28;20191;-78
2024/01/08 06:52:30;;;;;;;2.50;2.30;;;;;;;6.22;71.61;93833.97;5064964;28;20233;-78
2024/01/08 06:54:56;;;;;;;2.50;2.30;;;;;;;5.92;73.19;93849.06;5071996;28;20235;-78
2024/01/08 06:57:22;;;;;;;3.00;2.70;;;;;;;6.04;73.69;93853.13;5070904;28;20220;-76
2024/01/08 06:59:48;;;;;;;3.03;2.83;;;;;;;6.15;73.48;93868.50;5072208;28;20231;-77
2024/01/08 07:02:13;;;;;;;3.50;3.20;;;;;;;6.19;73.40;93854.16;5069986;28;20223;-74
2024/01/08 07:04:39;;;;;;;3.50;3.20;;;;;;;6.21;73.42;93864.47;5075418;28;20207;-75
2024/01/08 07:07:04;;;;;;;3.47;3.17;;;;;;;6.35;72.87;93870.91;5076116;28;20307;-80
2024/01/08 07:09:30;;;;;;;2.73;2.53;;;;;;;6.21;72.63;93874.09;5067527;28;20307;-78
2024/01/08 07:11:55;;;;;;;3.67;3.37;;;;;;;6.13;72.79;93880.06;5074405;28;20217;-77
2024/01/08 07:14:20;;;;;;;3.27;2.97;;;;;;;6.00;72.87;93877.03;5068836;28;20255;-76
2024/01/08 07:16:46;;;;;;;3.57;3.20;;;;;;;6.04;72.38;93888.81;5075924;28;20193;-77
2024/01/08 07:19:11;;;;;;;3.07;2.80;;;;;;;6.18;71.86;93893.50;5071740;28;20224;-78
2024/01/08 07:21:37;;;;;;;3.27;3.00;;;;;;;6.11;72.45;93900.28;5070853;28;20228;-78
2024/01/08 07:24:03;;;;;;;2.90;2.70;;;;;;;5.97;71.95;93904.25;5073264;28;20282;-79
2024/01/08 07:26:28;;;;;;;3.33;3.03;;;;;;;6.10;72.50;93914.31;5072777;28;20228;-77
2024/01/08 07:28:54;;;;;;;3.30;2.33;;;;;;;5.88;71.90;93905.97;5070586;28;20192;-75
2024/01/08 07:31:20;;;;;;;2.70;2.50;;;;;;;5.82;72.68;93924.81;5069532;28;20223;-75
2024/01/08 07:33:45;;;;;;;2.77;2.57;;;;;;;5.65;72.25;93938.69;5073452;28;20231;-74
2024/01/08 07:36:11;;;;;;;2.90;2.70;;;;;;;5.59;71.81;93934.06;5071493;28;20230;-76
2024/01/08 07:38:37;;;;;;;3.07;2.87;;;;;;;5.63;72.62;93941.41;5073589;28;20292;-73
2024/01/08 07:41:04;;;;;;;2.60;2.40;;;;;;;5.49;72.35;93952.38;5066451;28;20209;-74
2024/01/08 07:43:29;;;;;;;2.37;2.23;;;;;;;5.50;72.49;93944.38;5074062;28;20187;-80
2024/01/08 07:45:55;;;;;;;2.97;2.77;;;;;;;5.28;72.28;93948.22;5070393;28;20228;-77
2024/01/08 07:48:20;;;;;;;2.73;2.53;;;;;;;5.15;73.08;93960.78;5074099;28;20225;-76
2024/01/08 07:50:46;;;;;;;3.20;2.73;;;;;;;5.22;73.40;93958.44;5075678;28;20240;-77
2024/01/08 07:53:12;;;;;;;3.13;2.87;;;;;;;5.24;73.00;93959.91;5077172;28;20190;-77
2024/01/08 07:55:37;;;;;;;4.50;3.40;;;;;;;5.14;74.02;93963.53;5074884;28;20201;-72
2024/01/08 07:58:03;;;;;;;3.83;3.47;;;;;;;5.09;73.71;93983.03;5072361;28;20244;-71
2024/01/08 08:00:29;;;;;;;4.23;3.20;;;;;;;5.23;73.85;93973.09;5074217;28;20219;-74
2024/01/08 08:02:54;;;;;;;3.90;3.53;;;;;;;5.36;73.36;93980.56;5072959;28;20229;-77
2024/01/08 08:05:20;;;;;;;4.33;3.30;;;;;;;5.33;72.97;93999.13;5075930;28;20224;-76
2024/01/08 08:07:45;;;;;;;3.37;3.07;;;;;;;5.35;72.50;93984.16;5081643;28;20222;-69
2024/01/08 08:10:11;;;;;;;3.17;2.90;;;;;;;5.26;73.11;93994.47;5067936;28;20236;-68
2024/01/08 08:12:36;;;;;;;3.60;3.30;;;;;;;5.22;72.75;94000.13;5073612;28;20221;-73
2024/01/08 08:15:02;;;;;;;3.53;3.23;;;;;;;5.14;73.60;94000.03;5070000;28;20307;-75
2024/01/08 08:17:28;;;;;;;3.40;3.10;;;;;;;5.18;72.94;94001.38;5072961;28;20227;-72
2024/01/08 08:19:53;;;;;;;3.70;3.40;;;;;;;5.20;73.08;94000.25;5077151;28;20192;-74
2024/01/08 08:22:19;;;;;;;3.33;3.07;;;;;;;5.20;72.20;94002.88;5068616;28;20268;-76
2024/01/08 08:24:47;;;;;;;2.80;2.60;;;;;;;5.36;71.47;94012.66;5076125;28;20231;-74
2024/01/08 08:27:13;;;;;;;3.27;2.93;;;;;;;5.18;72.40;94012.59;5076104;28;20233;-73
2024/01/08 08:29:44;;;;;;;4.00;3.60;;;;;;;5.25;72.28;94026.72;5074630;28;20314;-75
2024/01/08 08:32:09;;;;;;;4.20;3.77;;;;;;;5.07;72.19;94018.00;5067189;28;20188;-75
2024/01/08 08:34:36;;;;;;;3.40;3.10;;;;;;;5.15;72.44;94028.53;5074788;28;20177;-75
2024/01/08 08:37:02;;;;;;;4.03;2.90;;;;;;;5.14;71.81;94031.28;5072577;28;20247;-72
2024/01/08 08:39:27;;;;;;;3.13;2.87;;;;;;;5.16;71.98;94030.19;5079280;28;20252;-75
2024/01/08 08:41:53;;;;;;;3.90;2.83;;;;;;;5.20;71.11;94038.53;5072803;28;20233;-73
2024/01/08 08:44:20;;;;;;;2.83;2.63;;;;;;;4.96;71.68;94033.81;5072745;28;20331;-74
2024/01/08 08:46:46;;;;;;;2.60;2.40;;;;;;;4.99;71.91;94036.94;5090370;28;20236;-74
2024/01/08 08:49:13;;;;;;;3.13;2.83;;;;;;;5.15;71.36;94046.78;5079749;28;20220;-73
2024/01/08 08:51:38;;;;;;;3.00;2.80;;;;;;;5.12;71.42;94044.44;5073650;28;20236;-70
2024/01/08 08:54:04;;;;;;;3.70;2.70;;;;;;;4.98;70.00;94042.31;5071371;28;20253;-70
2024/01/08 08:56:32;;;;;;;2.73;2.53;;;;;;;5.03;70.98;94040.94;5069295;28;20228;-72
2024/01/08 08:58:58;;;;;;;2.80;2.60;;;;;;;5.12;70.40;94057.47;5069665;28;20182;-71
2024/01/08 09:01:23;;;;;;;2.30;2.10;;;;;;;5.13;69.60;94045.28;5078331;28;20239;-72
2024/01/08 09:03:48;;;;;;;2.50;2.30;;;;;;;5.20;69.60;94051.56;5074623;28;20216;-70
2024/01/08 09:06:14;;;;;;;3.17;2.30;;;;;;;5.04;68.31;94057.38;5073604;28;20244;-71
2024/01/08 09:08:39;;;;;;;2.10;2.00;;;;;;;5.09;69.02;94061.19;5073297;28;20229;-72
2024/01/08 09:11:05;;;;;;;2.10;2.00;;;;;;;5.12;68.71;94060.09;5079278;28;20183;-73
2024/01/08 09:13:32;;;;;;;4.50;2.70;;;;;;;5.15;68.17;94061.59;5077647;28;20308;-71
2024/01/08 09:15:59;;;;;;;2.20;2.00;;;;;;;5.06;67.63;94060.66;5073482;28;20228;-69
2024/01/08 09:18:26;;;;;;;2.30;2.10;;;;;;;5.02;67.93;94056.69;5070095;28;20308;-70
2024/01/08 09:20:51;;;;;;;2.37;2.17;;;;;;;5.09;67.93;94065.59;5074838;28;20251;-72
2024/01/08 09:23:17;;;;;;;2.90;2.50;;;;;;;5.07;67.44;94062.28;5072146;28;20277;-78
2024/01/08 09:25:42;;;;;;;2.33;2.13;;;;;;;5.17;66.82;94063.09;5070675;28;20200;-73
2024/01/08 09:28:08;;;;;;;3.30;2.00;;;;;;;5.14;66.57;94071.19;5072818;28;20249;-80
2024/01/08 09:30:33;;;;;;;2.40;2.20;;;;;;;5.28;67.08;94062.91;5074005;28;20224;-76
2024/01/08 09:32:58;;;;;;;2.63;2.43;;;;;;;5.16;66.71;94056.25;5076348;28;20301;-72
2024/01/08 09:35:24;;;;;;;2.07;1.90;;;;;;;4.95;65.86;94056.44;5079774;28;20232;-71
2024/01/08 09:37:49;;;;;;;2.43;2.23;;;;;;;5.14;65.66;94071.19;5074273;28;20205;-72
2024/01/08 09:40:15;;;;;;;2.33;2.00;;;;;;;5.05;66.39;94067.66;5071092;28;20294;-80
2024/01/08 09:42:40;;;;;;;2.33;2.10;;;;;;;5.22;65.45;94070.50;5073861;28;20229;-72
2024/01/08 09:45:11;;;;;;;2.20;2.00;;;;;;;5.23;64.97;94082.53;5076614;28;20291;-74
2024/01/08 09:47:40;;;;;;;2.43;2.23;;;;;;;5.26;64.79;94070.03;5071099;28;20232;-75
2024/01/08 09:50:10;;;;;;;2.80;2.60;;;;;;;5.08;65.68;94072.59;5070630;28;20181;-73
2024/01/08 09:52:41;;;;;;;2.27;2.07;;;;;;;4.99;65.78;94060.41;5074977;28;20236;-75
2024/01/08 09:55:09;;;;;;;2.50;2.30;;;;;;;5.11;65.75;94078.50;5079117;28;20216;-75
2024/01/08 09:57:34;;;;;;;2.50;2.30;;;;;;;4.98;65.33;94081.41;5069696;28;20259;-73
2024/01/08 10:00:00;;;;;;;2.77;2.23;;;;;;;4.78;66.31;94068.38;5071710;28;20397;-72
2024/01/08 10:02:25;;;;;;;2.57;2.37;;;;;;;4.87;66.00;94084.97;5073886;28;20228;-71
2024/01/08 10:04:51;;;;;;;2.93;2.67;;;;;;;4.62;66.60;94079.41;5073268;28;20216;-75
2024/01/08 10:07:17;;;;;;;3.97;2.90;;;;;;;4.76;65.76;94085.97;5069702;28;20235;-72
2024/01/08 10:09:42;;;;;;;2.80;2.60;;;;;;;4.85;65.30;94079.91;5073776;28;20224;-76
2024/01/08 10:12:12;;;;;;;2.90;2.70;;;;;;;4.64;65.75;94074.03;5071560;28;20243;-77
2024/01/08 10:14:37;;;;;;;2.63;2.43;;;;;;;4.48;65.47;94076.38;5076747;28;20263;-77
2024/01/08 10:17:03;;;;;;;2.60;2.40;;;;;;;4.73;65.51;94083.63;5069232;28;20188;-76
2024/01/08 10:19:29;;;;;;;2.80;2.43;;;;;;;4.95;64.61;94079.88;5077438;28;20217;-76
2024/01/08 10:22:09;;;;;;;2.93;2.73;;;;;;;4.79;64.74;94085.69;5074492;28;20299;-71
2024/01/08 10:24:36;;;;;;;2.93;2.73;;;;;;;4.61;65.05;94082.13;5061411;28;20303;-72
2024/01/08 10:27:02;;;;;;;2.50;2.30;;;;;;;4.54;64.90;94081.03;5071536;28;20312;-70
2024/01/08 10:29:28;;;;;;;3.20;2.40;;;;;;;4.83;64.93;94071.41;5070906;28;20301;-67
2024/01/08 10:31:53;;;;;;;3.07;2.77;;;;;;;4.66;64.56;94085.16;5076207;28;20265;-74
2024/01/08 10:34:20;;;;;;;3.27;2.80;;;;;;;4.78;64.49;94084.00;5073023;28;20248;-75
2024/01/08 10:36:45;;;;;;;2.70;2.43;;;;;;;4.51;66.13;94096.94;5058633;28;20322;-74
2024/01/08 10:39:11;;;;;;;3.30;2.90;;;;;;;4.60;65.58;94086.53;5063139;28;20232;-74
2024/01/08 10:41:37;;;;;;;3.50;3.20;;;;;;;4.58;66.24;94083.22;5065466;28;20252;-75
2024/01/08 10:44:03;;;;;;;3.00;2.70;;;;;;;4.77;66.29;94094.59;5075015;28;20192;-75
2024/01/08 10:46:34;;;;;;;3.37;2.90;;;;;;;4.72;66.39;94087.19;5055637;28;20232;-75
2024/01/08 10:49:01;;;;;;;10.07;8.93;;;;;;;5.09;65.65;94096.84;5058390;28;20221;-73
2024/01/08 10:51:27;;;;;;;11.00;9.60;;;;;;;4.98;65.94;94082.22;5070493;28;20229;-68
2024/01/08 10:53:54;;;;;;;5.23;4.73;;;;;;;5.05;65.93;94090.28;5064371;28;20229;-67
2024/01/08 10:56:24;;;;;;;3.60;3.30;;;;;;;4.91;66.37;94096.75;5072196;28;20204;-67
2024/01/08 10:59:09;;;;;;;3.20;2.90;;;;;;;4.92;65.37;94094.97;5074220;28;20184;-67
2024/01/08 11:01:37;;;;;;;3.00;2.70;;;;;;;4.73;65.61;94088.84;5071951;28;20216;-68
2024/01/08 11:04:04;;;;;;;3.07;2.77;;;;;;;4.89;65.16;94096.06;5070352;28;20243;-68
2024/01/08 11:06:32;;;;;;;3.73;2.93;;;;;;;5.04;64.35;94086.84;5074244;28;20233;-68
2024/01/08 11:08:58;;;;;;;3.40;2.83;;;;;;;4.89;65.33;94096.06;5071693;28;20224;-70
2024/01/08 11:11:25;;;;;;;4.17;3.63;;;;;;;4.79;65.67;94096.09;5073957;28;20232;-71
2024/01/08 11:13:51;;;;;;;4.87;4.03;;;;;;;4.94;65.06;94106.88;5070242;28;20185;-73
2024/01/08 11:16:28;;;;;;;3.43;3.13;;;;;;;4.97;64.59;94109.25;5070442;28;20278;-73
2024/01/08 11:19:19;;;;;;;4.47;3.77;;;;;;;4.94;64.46;94106.06;5069199;28;20236;-72
2024/01/08 11:21:47;;;;;;;4.10;3.60;;;;;;;4.73;65.44;94114.03;5075484;28;20257;-70
2024/01/08 11:24:13;;;;;;;3.47;3.20;;;;;;;4.81;65.50;94109.81;5079972;28;20311;-72
2024/01/08 11:26:48;;;;;;;3.00;2.63;;;;;;;4.75;64.65;94104.31;5068759;28;20231;-68
2024/01/08 11:29:16;;;;;;;4.37;3.50;;;;;;;4.81;65.07;94108.97;5074620;28;20195;-70
2024/01/08 11:31:47;;;;;;;3.67;3.37;;;;;;;4.77;65.49;94113.63;5075899;28;20216;-72
2024/01/08 11:34:35;;;;;;;3.47;3.17;;;;;;;4.75;65.31;94112.13;5080107;28;20229;-75
2024/01/08 11:37:29;;;;;;;4.23;3.83;;;;;;;4.51;65.43;94115.16;5076362;28;20232;-76